sensor_id;sensor_type;location;lat;lon;timestamp;temperature;humidity
71994;DHT22;59861;50.268;8.648;2023-07-24T00:00:12;20.70;63.00
71994;DHT22;59861;50.268;8.648;2023-07-24T00:02:39;20.70;63.10
71994;DHT22;59861;50.268;8.648;2023-07-24T00:05:06;20.70;63.00
71994;DHT22;59861;50.268;8.648;2023-07-24T00:07:33;20.70;63.10
71994;DHT22;59861;50.268;8.648;2023-07-24T00:10:00;20.70;63.00
71994;DHT22;59861;50.268;8.648;2023-07-24T00:12:27;20.70;63.10
71994;DHT22;59861;50.268;8.648;2023-07-24T00:14:53;20.70;63.00
71994;DHT22;59861;50.268;8.648;2023-07-24T00:17:20;20.70;63.00
71994;DHT22;59861;50.268;8.648;2023-07-24T00:19:48;20.70;63.00
71994;DHT22;59861;50.268;8.648;2023-07-24T00:22:15;20.70;63.00
71994;DHT22;59861;50.268;8.648;2023-07-24T00:24:41;20.70;62.90
71994;DHT22;59861;50.268;8.648;2023-07-24T00:27:08;20.70;62.90
71994;DHT22;59861;50.268;8.648;2023-07-24T00:29:35;20.70;63.00
71994;DHT22;59861;50.268;8.648;2023-07-24T00:32:02;20.70;62.90
71994;DHT22;59861;50.268;8.648;2023-07-24T00:34:29;20.70;62.90
71994;DHT22;59861;50.268;8.648;2023-07-24T00:36:55;20.70;62.90
71994;DHT22;59861;50.268;8.648;2023-07-24T00:39:22;20.70;63.80
71994;DHT22;59861;50.268;8.648;2023-07-24T00:41:49;20.70;62.90
71994;DHT22;59861;50.268;8.648;2023-07-24T00:44:18;20.70;62.90
71994;DHT22;59861;50.268;8.648;2023-07-24T00:46:44;20.70;62.90
71994;DHT22;59861;50.268;8.648;2023-07-24T00:49:11;20.70;63.20
71994;DHT22;59861;50.268;8.648;2023-07-24T00:51:39;20.70;62.90
71994;DHT22;59861;50.268;8.648;2023-07-24T00:54:06;20.70;62.80
71994;DHT22;59861;50.268;8.648;2023-07-24T00:56:33;20.70;62.80
71994;DHT22;59861;50.268;8.648;2023-07-24T00:59:00;20.70;62.90
71994;DHT22;59861;50.268;8.648;2023-07-24T01:01:28;20.70;62.80
71994;DHT22;59861;50.268;8.648;2023-07-24T01:03:55;20.70;62.90
71994;DHT22;59861;50.268;8.648;2023-07-24T01:06:23;20.70;62.80
71994;DHT22;59861;50.268;8.648;2023-07-24T01:08:50;20.70;62.90
71994;DHT22;59861;50.268;8.648;2023-07-24T01:11:19;20.70;62.90
71994;DHT22;59861;50.268;8.648;2023-07-24T01:13:59;20.70;63.00
71994;DHT22;59861;50.268;8.648;2023-07-24T01:16:22;20.60;62.80
71994;DHT22;59861;50.268;8.648;2023-07-24T01:18:50;20.70;62.90
71994;DHT22;59861;50.268;8.648;2023-07-24T01:21:18;20.70;63.10
71994;DHT22;59861;50.268;8.648;2023-07-24T01:24:02;20.70;62.90
71994;DHT22;59861;50.268;8.648;2023-07-24T01:26:27;20.70;62.90
71994;DHT22;59861;50.268;8.648;2023-07-24T01:28:54;20.60;62.80
71994;DHT22;59861;50.268;8.648;2023-07-24T01:31:20;20.60;62.80
71994;DHT22;59861;50.268;8.648;2023-07-24T01:33:47;20.70;62.80
71994;DHT22;59861;50.268;8.648;2023-07-24T01:36:14;20.70;62.80
71994;DHT22;59861;50.268;8.648;2023-07-24T01:38:41;20.70;62.80
71994;DHT22;59861;50.268;8.648;2023-07-24T01:41:08;20.70;62.80
71994;DHT22;59861;50.268;8.648;2023-07-24T01:43:36;20.60;62.80
71994;DHT22;59861;50.268;8.648;2023-07-24T01:46:03;20.70;62.90
71994;DHT22;59861;50.268;8.648;2023-07-24T01:48:29;20.60;62.70
71994;DHT22;59861;50.268;8.648;2023-07-24T01:50:56;20.70;62.80
71994;DHT22;59861;50.268;8.648;2023-07-24T01:53:23;20.70;62.80
71994;DHT22;59861;50.268;8.648;2023-07-24T01:55:50;20.60;62.80
71994;DHT22;59861;50.268;8.648;2023-07-24T01:58:17;20.60;62.80
71994;DHT22;59861;50.268;8.648;2023-07-24T02:00:43;20.70;62.80
71994;DHT22;59861;50.268;8.648;2023-07-24T02:03:10;20.60;62.80
71994;DHT22;59861;50.268;8.648;2023-07-24T02:05:37;20.60;62.70
71994;DHT22;59861;50.268;8.648;2023-07-24T02:08:04;20.60;62.90
71994;DHT22;59861;50.268;8.648;2023-07-24T02:10:31;20.60;62.80
71994;DHT22;59861;50.268;8.648;2023-07-24T02:12:57;20.60;62.90
71994;DHT22;59861;50.268;8.648;2023-07-24T02:15:24;20.60;62.80
71994;DHT22;59861;50.268;8.648;2023-07-24T02:17:51;20.60;62.90
71994;DHT22;59861;50.268;8.648;2023-07-24T02:20:18;20.60;62.80
71994;DHT22;59861;50.268;8.648;2023-07-24T02:22:45;20.60;62.80
71994;DHT22;59861;50.268;8.648;2023-07-24T02:25:11;20.60;62.80
71994;DHT22;59861;50.268;8.648;2023-07-24T02:27:38;20.60;62.90
71994;DHT22;59861;50.268;8.648;2023-07-24T02:30:05;20.60;62.80
71994;DHT22;59861;50.268;8.648;2023-07-24T02:32:32;20.60;62.70
71994;DHT22;59861;50.268;8.648;2023-07-24T02:34:59;20.60;62.70
71994;DHT22;59861;50.268;8.648;2023-07-24T02:37:26;20.60;62.70
71994;DHT22;59861;50.268;8.648;2023-07-24T02:39:52;20.60;63.70
71994;DHT22;59861;50.268;8.648;2023-07-24T02:42:19;20.60;62.80
71994;DHT22;59861;50.268;8.648;2023-07-24T02:44:46;20.60;62.70
71994;DHT22;59861;50.268;8.648;2023-07-24T02:47:13;20.60;62.80
71994;DHT22;59861;50.268;8.648;2023-07-24T02:49:40;20.60;62.80
71994;DHT22;59861;50.268;8.648;2023-07-24T02:52:06;20.60;62.70
71994;DHT22;59861;50.268;8.648;2023-07-24T02:54:33;20.60;62.80
71994;DHT22;59861;50.268;8.648;2023-07-24T02:57:00;20.60;62.80
71994;DHT22;59861;50.268;8.648;2023-07-24T02:59:29;20.60;62.70
71994;DHT22;59861;50.268;8.648;2023-07-24T03:01:57;20.60;62.70
71994;DHT22;59861;50.268;8.648;2023-07-24T03:04:24;20.60;62.80
71994;DHT22;59861;50.268;8.648;2023-07-24T03:06:51;20.60;62.80
71994;DHT22;59861;50.268;8.648;2023-07-24T03:09:18;20.60;62.70
71994;DHT22;59861;50.268;8.648;2023-07-24T03:11:45;20.60;62.70
71994;DHT22;59861;50.268;8.648;2023-07-24T03:14:12;20.60;62.80
71994;DHT22;59861;50.268;8.648;2023-07-24T03:16:38;20.60;62.70
71994;DHT22;59861;50.268;8.648;2023-07-24T03:19:05;20.60;62.00
71994;DHT22;59861;50.268;8.648;2023-07-24T03:21:32;20.60;62.70
71994;DHT22;59861;50.268;8.648;2023-07-24T03:23:59;20.60;62.80
71994;DHT22;59861;50.268;8.648;2023-07-24T03:26:26;20.60;62.80
71994;DHT22;59861;50.268;8.648;2023-07-24T03:28:52;20.60;62.80
71994;DHT22;59861;50.268;8.648;2023-07-24T03:31:19;20.60;62.80
71994;DHT22;59861;50.268;8.648;2023-07-24T03:33:46;20.60;62.80
71994;DHT22;59861;50.268;8.648;2023-07-24T03:36:13;20.60;62.80
71994;DHT22;59861;50.268;8.648;2023-07-24T03:38:39;20.50;62.70
71994;DHT22;59861;50.268;8.648;2023-07-24T03:41:06;20.60;62.80
71994;DHT22;59861;50.268;8.648;2023-07-24T03:43:33;20.50;62.70
71994;DHT22;59861;50.268;8.648;2023-07-24T03:46:00;20.60;62.80
71994;DHT22;59861;50.268;8.648;2023-07-24T03:48:27;20.60;62.80
71994;DHT22;59861;50.268;8.648;2023-07-24T03:51:00;20.50;62.70
71994;DHT22;59861;50.268;8.648;2023-07-24T03:53:27;20.60;62.80
71994;DHT22;59861;50.268;8.648;2023-07-24T03:55:54;20.50;63.40
71994;DHT22;59861;50.268;8.648;2023-07-24T03:58:21;20.50;62.80
71994;DHT22;59861;50.268;8.648;2023-07-24T04:00:48;20.50;62.70
71994;DHT22;59861;50.268;8.648;2023-07-24T04:03:15;20.60;62.80
71994;DHT22;59861;50.268;8.648;2023-07-24T04:05:42;20.50;62.60
71994;DHT22;59861;50.268;8.648;2023-07-24T04:08:08;20.50;62.60
71994;DHT22;59861;50.268;8.648;2023-07-24T04:10:35;20.60;62.60
71994;DHT22;59861;50.268;8.648;2023-07-24T04:13:02;20.60;62.80
71994;DHT22;59861;50.268;8.648;2023-07-24T04:15:29;20.50;62.70
71994;DHT22;59861;50.268;8.648;2023-07-24T04:17:56;20.50;62.70
71994;DHT22;59861;50.268;8.648;2023-07-24T04:20:22;20.50;62.80
71994;DHT22;59861;50.268;8.648;2023-07-24T04:22:49;20.60;62.80
71994;DHT22;59861;50.268;8.648;2023-07-24T04:25:16;20.60;62.80
71994;DHT22;59861;50.268;8.648;2023-07-24T04:27:43;20.50;62.70
71994;DHT22;59861;50.268;8.648;2023-07-24T04:30:10;20.50;62.90
71994;DHT22;59861;50.268;8.648;2023-07-24T04:32:37;20.50;62.70
71994;DHT22;59861;50.268;8.648;2023-07-24T04:35:03;20.50;62.70
71994;DHT22;59861;50.268;8.648;2023-07-24T04:37:30;20.50;62.80
71994;DHT22;59861;50.268;8.648;2023-07-24T04:39:57;20.50;62.60
71994;DHT22;59861;50.268;8.648;2023-07-24T04:42:24;20.50;62.50
71994;DHT22;59861;50.268;8.648;2023-07-24T04:44:51;20.50;62.60
71994;DHT22;59861;50.268;8.648;2023-07-24T04:47:18;20.50;62.60
71994;DHT22;59861;50.268;8.648;2023-07-24T04:49:44;20.50;62.60
71994;DHT22;59861;50.268;8.648;2023-07-24T04:52:11;20.50;62.70
71994;DHT22;59861;50.268;8.648;2023-07-24T04:54:38;20.50;62.70
71994;DHT22;59861;50.268;8.648;2023-07-24T04:57:05;20.50;62.70
71994;DHT22;59861;50.268;8.648;2023-07-24T04:59:32;20.50;62.70
71994;DHT22;59861;50.268;8.648;2023-07-24T05:01:58;20.50;62.70
71994;DHT22;59861;50.268;8.648;2023-07-24T05:04:25;20.50;62.70
71994;DHT22;59861;50.268;8.648;2023-07-24T05:06:52;20.50;62.70
71994;DHT22;59861;50.268;8.648;2023-07-24T05:09:19;20.50;62.70
71994;DHT22;59861;50.268;8.648;2023-07-24T05:11:45;20.50;62.70
71994;DHT22;59861;50.268;8.648;2023-07-24T05:14:12;20.50;62.70
71994;DHT22;59861;50.268;8.648;2023-07-24T05:16:39;20.50;62.70
71994;DHT22;59861;50.268;8.648;2023-07-24T05:19:06;20.50;62.60
71994;DHT22;59861;50.268;8.648;2023-07-24T05:21:33;20.50;62.70
71994;DHT22;59861;50.268;8.648;2023-07-24T05:23:59;20.60;62.70
71994;DHT22;59861;50.268;8.648;2023-07-24T05:26:26;20.60;62.80
71994;DHT22;59861;50.268;8.648;2023-07-24T05:28:53;20.50;62.60
71994;DHT22;59861;50.268;8.648;2023-07-24T05:31:20;20.60;62.80
71994;DHT22;59861;50.268;8.648;2023-07-24T05:33:47;20.50;62.70
71994;DHT22;59861;50.268;8.648;2023-07-24T05:36:14;20.50;63.60
71994;DHT22;59861;50.268;8.648;2023-07-24T05:38:41;20.50;62.70
71994;DHT22;59861;50.268;8.648;2023-07-24T05:41:07;20.50;62.70
71994;DHT22;59861;50.268;8.648;2023-07-24T05:43:34;20.50;62.70
71994;DHT22;59861;50.268;8.648;2023-07-24T05:46:01;20.50;62.70
71994;DHT22;59861;50.268;8.648;2023-07-24T05:48:28;20.50;62.70
71994;DHT22;59861;50.268;8.648;2023-07-24T05:50:54;20.50;62.70
71994;DHT22;59861;50.268;8.648;2023-07-24T05:53:21;20.50;62.60
71994;DHT22;59861;50.268;8.648;2023-07-24T05:55:55;20.50;62.70
71994;DHT22;59861;50.268;8.648;2023-07-24T05:58:16;20.50;62.60
71994;DHT22;59861;50.268;8.648;2023-07-24T06:00:43;20.50;62.60
71994;DHT22;59861;50.268;8.648;2023-07-24T06:03:10;20.50;62.60
71994;DHT22;59861;50.268;8.648;2023-07-24T06:05:37;20.50;62.60
71994;DHT22;59861;50.268;8.648;2023-07-24T06:08:04;20.60;62.60
71994;DHT22;59861;50.268;8.648;2023-07-24T06:10:30;20.50;62.60
71994;DHT22;59861;50.268;8.648;2023-07-24T06:12:57;20.50;62.60
71994;DHT22;59861;50.268;8.648;2023-07-24T06:15:24;20.50;62.60
71994;DHT22;59861;50.268;8.648;2023-07-24T06:17:51;20.50;62.70
71994;DHT22;59861;50.268;8.648;2023-07-24T06:20:18;20.50;62.70
71994;DHT22;59861;50.268;8.648;2023-07-24T06:22:45;20.50;62.50
71994;DHT22;59861;50.268;8.648;2023-07-24T06:25:12;20.50;62.60
71994;DHT22;59861;50.268;8.648;2023-07-24T06:27:38;20.50;62.50
71994;DHT22;59861;50.268;8.648;2023-07-24T06:30:05;20.50;62.60
71994;DHT22;59861;50.268;8.648;2023-07-24T06:32:32;20.50;62.60
71994;DHT22;59861;50.268;8.648;2023-07-24T06:34:59;20.50;61.60
71994;DHT22;59861;50.268;8.648;2023-07-24T06:37:26;20.50;62.50
71994;DHT22;59861;50.268;8.648;2023-07-24T06:39:53;20.50;62.50
71994;DHT22;59861;50.268;8.648;2023-07-24T06:42:19;20.50;62.50
71994;DHT22;59861;50.268;8.648;2023-07-24T06:44:46;20.50;62.50
71994;DHT22;59861;50.268;8.648;2023-07-24T06:47:13;20.50;62.50
71994;DHT22;59861;50.268;8.648;2023-07-24T06:49:40;20.50;62.50
71994;DHT22;59861;50.268;8.648;2023-07-24T06:52:07;20.60;62.50
71994;DHT22;59861;50.268;8.648;2023-07-24T06:54:34;20.50;62.40
71994;DHT22;59861;50.268;8.648;2023-07-24T06:57:00;20.50;63.40
71994;DHT22;59861;50.268;8.648;2023-07-24T06:59:27;20.60;62.50
71994;DHT22;59861;50.268;8.648;2023-07-24T07:01:54;20.50;62.50
71994;DHT22;59861;50.268;8.648;2023-07-24T07:04:21;20.50;62.50
71994;DHT22;59861;50.268;8.648;2023-07-24T07:06:47;20.50;62.40
71994;DHT22;59861;50.268;8.648;2023-07-24T07:09:14;20.50;62.40
71994;DHT22;59861;50.268;8.648;2023-07-24T07:11:41;20.50;62.40
71994;DHT22;59861;50.268;8.648;2023-07-24T07:14:10;20.50;62.40
71994;DHT22;59861;50.268;8.648;2023-07-24T07:16:36;20.60;62.50
71994;DHT22;59861;50.268;8.648;2023-07-24T07:19:03;20.60;62.40
71994;DHT22;59861;50.268;8.648;2023-07-24T07:21:30;20.60;62.40
71994;DHT22;59861;50.268;8.648;2023-07-24T07:23:57;20.50;62.50
71994;DHT22;59861;50.268;8.648;2023-07-24T07:26:24;20.50;62.40
71994;DHT22;59861;50.268;8.648;2023-07-24T07:28:51;20.50;62.30
71994;DHT22;59861;50.268;8.648;2023-07-24T07:31:17;20.50;62.40
71994;DHT22;59861;50.268;8.648;2023-07-24T07:33:44;20.50;62.30
71994;DHT22;59861;50.268;8.648;2023-07-24T07:36:11;20.50;62.40
71994;DHT22;59861;50.268;8.648;2023-07-24T07:38:38;20.50;62.40
71994;DHT22;59861;50.268;8.648;2023-07-24T07:41:05;20.60;62.40
71994;DHT22;59861;50.268;8.648;2023-07-24T07:43:32;20.50;62.50
71994;DHT22;59861;50.268;8.648;2023-07-24T07:46:00;20.50;62.40
71994;DHT22;59861;50.268;8.648;2023-07-24T07:48:27;20.50;62.50
71994;DHT22;59861;50.268;8.648;2023-07-24T07:50:54;20.60;62.40
71994;DHT22;59861;50.268;8.648;2023-07-24T07:53:21;20.50;62.50
71994;DHT22;59861;50.268;8.648;2023-07-24T07:55:54;20.50;62.50
71994;DHT22;59861;50.268;8.648;2023-07-24T07:58:16;20.60;62.40
71994;DHT22;59861;50.268;8.648;2023-07-24T08:00:43;20.60;62.50
71994;DHT22;59861;50.268;8.648;2023-07-24T08:03:10;20.60;62.40
71994;DHT22;59861;50.268;8.648;2023-07-24T08:05:36;20.60;62.40
71994;DHT22;59861;50.268;8.648;2023-07-24T08:08:03;20.60;62.40
71994;DHT22;59861;50.268;8.648;2023-07-24T08:10:30;20.60;62.40
71994;DHT22;59861;50.268;8.648;2023-07-24T08:12:57;20.60;62.40
71994;DHT22;59861;50.268;8.648;2023-07-24T08:15:24;20.60;62.20
71994;DHT22;59861;50.268;8.648;2023-07-24T08:17:51;20.60;62.40
71994;DHT22;59861;50.268;8.648;2023-07-24T08:20:17;20.60;62.30
71994;DHT22;59861;50.268;8.648;2023-07-24T08:22:44;20.60;62.50
71994;DHT22;59861;50.268;8.648;2023-07-24T08:25:12;20.60;62.40
71994;DHT22;59861;50.268;8.648;2023-07-24T08:27:39;20.60;62.40
71994;DHT22;59861;50.268;8.648;2023-07-24T08:30:06;20.60;62.40
71994;DHT22;59861;50.268;8.648;2023-07-24T08:32:33;20.50;62.40
71994;DHT22;59861;50.268;8.648;2023-07-24T08:35:00;20.60;62.50
71994;DHT22;59861;50.268;8.648;2023-07-24T08:37:26;20.60;62.50
71994;DHT22;59861;50.268;8.648;2023-07-24T08:39:53;20.60;62.40
71994;DHT22;59861;50.268;8.648;2023-07-24T08:42:20;20.60;62.50
71994;DHT22;59861;50.268;8.648;2023-07-24T08:44:48;20.60;62.40
71994;DHT22;59861;50.268;8.648;2023-07-24T08:47:15;20.60;62.40
71994;DHT22;59861;50.268;8.648;2023-07-24T08:49:42;20.60;62.40
71994;DHT22;59861;50.268;8.648;2023-07-24T08:52:09;20.60;62.40
71994;DHT22;59861;50.268;8.648;2023-07-24T08:54:36;20.60;62.40
71994;DHT22;59861;50.268;8.648;2023-07-24T08:57:09;20.60;62.30
71994;DHT22;59861;50.268;8.648;2023-07-24T08:59:32;20.60;62.30
71994;DHT22;59861;50.268;8.648;2023-07-24T09:01:59;20.60;62.30
71994;DHT22;59861;50.268;8.648;2023-07-24T09:04:26;20.60;62.40
71994;DHT22;59861;50.268;8.648;2023-07-24T09:06:53;20.60;62.30
71994;DHT22;59861;50.268;8.648;2023-07-24T09:09:20;20.60;62.20
71994;DHT22;59861;50.268;8.648;2023-07-24T09:11:51;20.60;62.40
71994;DHT22;59861;50.268;8.648;2023-07-24T09:14:25;20.60;62.40
71994;DHT22;59861;50.268;8.648;2023-07-24T09:16:49;20.60;62.30
71994;DHT22;59861;50.268;8.648;2023-07-24T09:19:18;20.60;62.30
71994;DHT22;59861;50.268;8.648;2023-07-24T09:21:45;20.60;62.20
71994;DHT22;59861;50.268;8.648;2023-07-24T09:24:12;20.60;62.30
71994;DHT22;59861;50.268;8.648;2023-07-24T09:26:49;20.60;62.50
71994;DHT22;59861;50.268;8.648;2023-07-24T09:29:16;20.60;62.40
71994;DHT22;59861;50.268;8.648;2023-07-24T09:31:43;20.60;62.40
71994;DHT22;59861;50.268;8.648;2023-07-24T09:34:14;20.60;62.50
71994;DHT22;59861;50.268;8.648;2023-07-24T09:36:42;20.60;62.30
71994;DHT22;59861;50.268;8.648;2023-07-24T09:39:09;20.60;62.30
71994;DHT22;59861;50.268;8.648;2023-07-24T09:41:39;20.60;62.20
71994;DHT22;59861;50.268;8.648;2023-07-24T09:44:06;20.60;62.40
71994;DHT22;59861;50.268;8.648;2023-07-24T09:46:33;20.60;62.40
71994;DHT22;59861;50.268;8.648;2023-07-24T09:49:00;20.60;62.20
71994;DHT22;59861;50.268;8.648;2023-07-24T09:51:28;20.60;62.20
71994;DHT22;59861;50.268;8.648;2023-07-24T09:53:58;20.60;62.40
71994;DHT22;59861;50.268;8.648;2023-07-24T09:56:24;20.60;62.30
71994;DHT22;59861;50.268;8.648;2023-07-24T09:58:52;20.60;62.40
71994;DHT22;59861;50.268;8.648;2023-07-24T10:01:21;20.60;62.30
71994;DHT22;59861;50.268;8.648;2023-07-24T10:03:48;20.60;62.40
71994;DHT22;59861;50.268;8.648;2023-07-24T10:06:16;20.60;63.40
71994;DHT22;59861;50.268;8.648;2023-07-24T10:08:43;20.60;62.40
71994;DHT22;59861;50.268;8.648;2023-07-24T10:11:13;20.60;62.40
71994;DHT22;59861;50.268;8.648;2023-07-24T10:13:41;20.60;62.20
71994;DHT22;59861;50.268;8.648;2023-07-24T10:16:08;20.60;62.50
71994;DHT22;59861;50.268;8.648;2023-07-24T10:18:41;20.60;62.40
71994;DHT22;59861;50.268;8.648;2023-07-24T10:21:07;20.60;62.40
71994;DHT22;59861;50.268;8.648;2023-07-24T10:23:35;20.60;62.40
71994;DHT22;59861;50.268;8.648;2023-07-24T10:26:02;20.60;62.40
71994;DHT22;59861;50.268;8.648;2023-07-24T10:28:37;20.60;62.40
71994;DHT22;59861;50.268;8.648;2023-07-24T10:31:00;20.60;62.40
71994;DHT22;59861;50.268;8.648;2023-07-24T10:33:30;20.60;62.40
71994;DHT22;59861;50.268;8.648;2023-07-24T10:36:04;20.60;62.70
71994;DHT22;59861;50.268;8.648;2023-07-24T10:38:35;20.60;62.60
71994;DHT22;59861;50.268;8.648;2023-07-24T10:41:03;20.60;62.60
71994;DHT22;59861;50.268;8.648;2023-07-24T10:43:39;20.60;62.60
71994;DHT22;59861;50.268;8.648;2023-07-24T10:45:58;20.60;62.60
71994;DHT22;59861;50.268;8.648;2023-07-24T10:48:25;20.60;62.70
71994;DHT22;59861;50.268;8.648;2023-07-24T10:50:52;20.60;62.40
71994;DHT22;59861;50.268;8.648;2023-07-24T10:53:20;20.60;62.70
71994;DHT22;59861;50.268;8.648;2023-07-24T10:55:47;20.60;62.70
71994;DHT22;59861;50.268;8.648;2023-07-24T10:58:16;20.60;62.80
71994;DHT22;59861;50.268;8.648;2023-07-24T11:00:43;20.60;62.80
71994;DHT22;59861;50.268;8.648;2023-07-24T11:03:10;20.60;62.60
71994;DHT22;59861;50.268;8.648;2023-07-24T11:05:40;20.60;62.70
71994;DHT22;59861;50.268;8.648;2023-07-24T11:10:48;20.60;62.80
71994;DHT22;59861;50.268;8.648;2023-07-24T11:13:15;20.60;62.70
71994;DHT22;59861;50.268;8.648;2023-07-24T11:15:42;20.60;62.80
71994;DHT22;59861;50.268;8.648;2023-07-24T11:18:09;20.60;62.70
71994;DHT22;59861;50.268;8.648;2023-07-24T11:20:37;20.60;62.80
71994;DHT22;59861;50.268;8.648;2023-07-24T11:23:04;20.60;62.70
71994;DHT22;59861;50.268;8.648;2023-07-24T11:25:31;20.60;62.60
71994;DHT22;59861;50.268;8.648;2023-07-24T11:27:58;20.60;62.70
71994;DHT22;59861;50.268;8.648;2023-07-24T11:30:25;20.60;62.80
71994;DHT22;59861;50.268;8.648;2023-07-24T11:32:52;20.60;62.80
71994;DHT22;59861;50.268;8.648;2023-07-24T11:35:19;20.60;62.70
71994;DHT22;59861;50.268;8.648;2023-07-24T11:37:47;20.60;62.70
71994;DHT22;59861;50.268;8.648;2023-07-24T11:40:14;20.60;62.50
71994;DHT22;59861;50.268;8.648;2023-07-24T11:42:44;20.60;62.70
71994;DHT22;59861;50.268;8.648;2023-07-24T11:45:11;20.60;62.80
71994;DHT22;59861;50.268;8.648;2023-07-24T11:47:44;20.60;62.70
71994;DHT22;59861;50.268;8.648;2023-07-24T11:50:09;20.60;62.60
71994;DHT22;59861;50.268;8.648;2023-07-24T11:52:42;20.60;62.60
71994;DHT22;59861;50.268;8.648;2023-07-24T11:55:10;20.60;62.70
71994;DHT22;59861;50.268;8.648;2023-07-24T11:57:37;20.60;62.50
71994;DHT22;59861;50.268;8.648;2023-07-24T12:00:17;20.70;62.50
71994;DHT22;59861;50.268;8.648;2023-07-24T12:02:35;20.60;62.70
71994;DHT22;59861;50.268;8.648;2023-07-24T12:05:04;20.70;62.50
71994;DHT22;59861;50.268;8.648;2023-07-24T12:07:32;20.70;62.50
71994;DHT22;59861;50.268;8.648;2023-07-24T12:10:00;20.70;62.50
71994;DHT22;59861;50.268;8.648;2023-07-24T12:12:37;20.70;62.60
71994;DHT22;59861;50.268;8.648;2023-07-24T12:14:55;20.70;62.70
71994;DHT22;59861;50.268;8.648;2023-07-24T12:17:22;20.70;62.50
71994;DHT22;59861;50.268;8.648;2023-07-24T12:19:49;20.70;62.50
71994;DHT22;59861;50.268;8.648;2023-07-24T12:22:16;20.70;62.50
71994;DHT22;59861;50.268;8.648;2023-07-24T12:24:44;20.70;62.80
71994;DHT22;59861;50.268;8.648;2023-07-24T12:27:11;20.70;62.80
71994;DHT22;59861;50.268;8.648;2023-07-24T12:29:38;20.70;62.70
71994;DHT22;59861;50.268;8.648;2023-07-24T12:32:05;20.70;62.80
71994;DHT22;59861;50.268;8.648;2023-07-24T12:34:32;20.70;62.60
71994;DHT22;59861;50.268;8.648;2023-07-24T12:36:58;20.70;62.60
71994;DHT22;59861;50.268;8.648;2023-07-24T12:39:25;20.70;62.60
71994;DHT22;59861;50.268;8.648;2023-07-24T12:41:52;20.70;62.50
71994;DHT22;59861;50.268;8.648;2023-07-24T12:44:19;20.70;62.80
71994;DHT22;59861;50.268;8.648;2023-07-24T12:46:46;20.70;62.50
71994;DHT22;59861;50.268;8.648;2023-07-24T12:49:13;20.70;62.70
71994;DHT22;59861;50.268;8.648;2023-07-24T12:51:40;20.70;62.70
71994;DHT22;59861;50.268;8.648;2023-07-24T12:54:06;20.70;62.60
71994;DHT22;59861;50.268;8.648;2023-07-24T12:56:33;20.70;62.70
71994;DHT22;59861;50.268;8.648;2023-07-24T12:59:01;20.70;62.60
71994;DHT22;59861;50.268;8.648;2023-07-24T13:01:29;20.70;62.50
71994;DHT22;59861;50.268;8.648;2023-07-24T13:03:55;20.70;62.40
71994;DHT22;59861;50.268;8.648;2023-07-24T13:06:22;20.70;62.50
71994;DHT22;59861;50.268;8.648;2023-07-24T13:08:50;20.70;62.50
71994;DHT22;59861;50.268;8.648;2023-07-24T13:11:17;20.70;63.60
71994;DHT22;59861;50.268;8.648;2023-07-24T13:13:44;20.70;62.70
71994;DHT22;59861;50.268;8.648;2023-07-24T13:16:11;20.70;62.50
71994;DHT22;59861;50.268;8.648;2023-07-24T13:18:38;20.70;62.40
71994;DHT22;59861;50.268;8.648;2023-07-24T13:21:04;20.70;62.50
71994;DHT22;59861;50.268;8.648;2023-07-24T13:23:33;20.70;62.50
71994;DHT22;59861;50.268;8.648;2023-07-24T13:26:00;20.70;62.60
71994;DHT22;59861;50.268;8.648;2023-07-24T13:28:27;20.70;62.60
71994;DHT22;59861;50.268;8.648;2023-07-24T13:30:54;20.70;63.00
71994;DHT22;59861;50.268;8.648;2023-07-24T13:33:21;20.70;62.60
71994;DHT22;59861;50.268;8.648;2023-07-24T13:35:49;20.70;62.50
71994;DHT22;59861;50.268;8.648;2023-07-24T13:38:16;20.70;62.60
71994;DHT22;59861;50.268;8.648;2023-07-24T13:40:43;20.70;62.50
71994;DHT22;59861;50.268;8.648;2023-07-24T13:43:10;20.70;62.60
71994;DHT22;59861;50.268;8.648;2023-07-24T13:45:36;20.70;62.50
71994;DHT22;59861;50.268;8.648;2023-07-24T13:48:03;20.70;62.70
71994;DHT22;59861;50.268;8.648;2023-07-24T13:50:30;20.70;62.70
71994;DHT22;59861;50.268;8.648;2023-07-24T13:52:57;20.70;62.70
71994;DHT22;59861;50.268;8.648;2023-07-24T13:55:24;20.70;62.70
71994;DHT22;59861;50.268;8.648;2023-07-24T13:57:50;20.70;62.80
71994;DHT22;59861;50.268;8.648;2023-07-24T14:00:17;20.70;62.70
71994;DHT22;59861;50.268;8.648;2023-07-24T14:02:44;20.70;62.70
71994;DHT22;59861;50.268;8.648;2023-07-24T14:05:11;20.70;62.80
71994;DHT22;59861;50.268;8.648;2023-07-24T14:07:38;20.70;62.80
71994;DHT22;59861;50.268;8.648;2023-07-24T14:10:05;20.70;63.00
71994;DHT22;59861;50.268;8.648;2023-07-24T14:12:32;20.70;62.70
71994;DHT22;59861;50.268;8.648;2023-07-24T14:14:59;20.70;62.60
71994;DHT22;59861;50.268;8.648;2023-07-24T14:17:26;20.70;62.70
71994;DHT22;59861;50.268;8.648;2023-07-24T14:19:53;20.70;62.70
71994;DHT22;59861;50.268;8.648;2023-07-24T14:22:20;20.70;62.90
71994;DHT22;59861;50.268;8.648;2023-07-24T14:24:47;20.70;62.70
71994;DHT22;59861;50.268;8.648;2023-07-24T14:27:14;20.80;62.80
71994;DHT22;59861;50.268;8.648;2023-07-24T14:29:40;20.70;62.90
71994;DHT22;59861;50.268;8.648;2023-07-24T14:32:07;20.70;62.80
71994;DHT22;59861;50.268;8.648;2023-07-24T14:34:34;20.80;62.90
71994;DHT22;59861;50.268;8.648;2023-07-24T14:37:01;20.70;62.50
71994;DHT22;59861;50.268;8.648;2023-07-24T14:39:28;20.70;63.00
71994;DHT22;59861;50.268;8.648;2023-07-24T14:41:55;20.70;63.20
71994;DHT22;59861;50.268;8.648;2023-07-24T14:44:21;20.70;63.10
71994;DHT22;59861;50.268;8.648;2023-07-24T14:46:48;20.70;63.20
71994;DHT22;59861;50.268;8.648;2023-07-24T14:49:15;20.70;63.20
71994;DHT22;59861;50.268;8.648;2023-07-24T14:51:42;20.70;63.30
71994;DHT22;59861;50.268;8.648;2023-07-24T14:54:09;20.80;63.20
71994;DHT22;59861;50.268;8.648;2023-07-24T14:56:35;20.80;63.30
71994;DHT22;59861;50.268;8.648;2023-07-24T14:59:02;20.70;63.30
71994;DHT22;59861;50.268;8.648;2023-07-24T15:01:29;20.70;63.30
71994;DHT22;59861;50.268;8.648;2023-07-24T15:03:56;20.80;63.60
71994;DHT22;59861;50.268;8.648;2023-07-24T15:06:23;20.80;63.70
71994;DHT22;59861;50.268;8.648;2023-07-24T15:08:50;20.80;63.70
71994;DHT22;59861;50.268;8.648;2023-07-24T15:11:19;20.80;63.90
71994;DHT22;59861;50.268;8.648;2023-07-24T15:13:46;20.80;63.80
71994;DHT22;59861;50.268;8.648;2023-07-24T15:16:13;20.80;63.70
71994;DHT22;59861;50.268;8.648;2023-07-24T15:18:39;20.90;64.10
71994;DHT22;59861;50.268;8.648;2023-07-24T15:21:06;20.90;64.10
71994;DHT22;59861;50.268;8.648;2023-07-24T15:23:33;20.80;64.20
71994;DHT22;59861;50.268;8.648;2023-07-24T15:26:00;20.90;64.30
71994;DHT22;59861;50.268;8.648;2023-07-24T15:28:27;20.90;64.30
71994;DHT22;59861;50.268;8.648;2023-07-24T15:30:54;20.90;64.50